createdAt,value
2023-07-25T00:00:49.489Z,21.87
2023-07-25T00:03:15.858Z,21.86
2023-07-25T00:05:42.223Z,21.87
2023-07-25T00:08:08.587Z,21.88
2023-07-25T00:10:35.496Z,21.88
2023-07-25T00:13:01.854Z,21.87
2023-07-25T00:15:28.225Z,21.88
2023-07-25T00:17:54.616Z,21.88
2023-07-25T00:20:20.971Z,21.87
2023-07-25T00:22:47.391Z,21.87
2023-07-25T00:25:13.838Z,21.87
2023-07-25T00:27:40.218Z,21.87
2023-07-25T00:30:06.810Z,21.87
2023-07-25T00:32:36.373Z,21.86
2023-07-25T00:35:03.014Z,21.86
2023-07-25T00:37:32.408Z,21.86
2023-07-25T00:39:58.810Z,21.87
2023-07-25T00:42:25.227Z,21.87
2023-07-25T00:44:51.797Z,21.86
2023-07-25T00:47:18.831Z,21.87
2023-07-25T00:49:45.185Z,21.86
2023-07-25T00:52:11.534Z,21.86
2023-07-25T00:54:41.047Z,21.85
2023-07-25T00:57:07.444Z,21.85
2023-07-25T00:59:33.842Z,21.85
2023-07-25T01:02:00.257Z,21.84
2023-07-25T01:04:26.831Z,21.83
2023-07-25T01:06:53.630Z,21.84
2023-07-25T01:09:38.958Z,21.82
2023-07-25T01:12:05.588Z,21.83
2023-07-25T01:14:32.722Z,21.81
2023-07-25T01:17:15.294Z,21.80
2023-07-25T01:19:42.710Z,21.79
2023-07-25T01:22:09.262Z,21.79
2023-07-25T01:24:42.019Z,21.79
2023-07-25T01:27:08.449Z,21.78
2023-07-25T01:29:34.835Z,21.79
2023-07-25T01:32:01.188Z,21.79
2023-07-25T01:34:27.622Z,21.78
2023-07-25T01:36:54.008Z,21.80
2023-07-25T01:39:20.354Z,21.80
2023-07-25T01:41:46.765Z,21.79
2023-07-25T01:44:13.173Z,21.79
2023-07-25T01:46:40.071Z,21.78
2023-07-25T01:49:06.447Z,21.78
2023-07-25T01:51:33.042Z,21.78
2023-07-25T01:54:00.022Z,21.79
2023-07-25T01:56:26.645Z,21.78
2023-07-25T01:58:53.068Z,21.77
2023-07-25T02:01:19.529Z,21.76
2023-07-25T02:03:46.315Z,21.75
2023-07-25T02:06:12.711Z,21.76
2023-07-25T02:08:39.093Z,21.77
2023-07-25T02:11:05.611Z,21.76
2023-07-25T02:13:31.961Z,21.75
2023-07-25T02:15:58.339Z,21.76
2023-07-25T02:18:24.744Z,21.75
2023-07-25T02:20:51.099Z,21.69
2023-07-25T02:23:17.474Z,21.75
2023-07-25T02:25:47.176Z,21.71
2023-07-25T02:28:13.626Z,21.72
2023-07-25T02:30:40.105Z,21.75
2023-07-25T02:33:06.977Z,21.75
2023-07-25T02:35:33.381Z,21.78
2023-07-25T02:37:59.749Z,21.78
2023-07-25T02:40:26.928Z,21.79
2023-07-25T02:42:53.284Z,21.80
2023-07-25T02:45:19.648Z,21.81
2023-07-25T02:47:46.095Z,21.80
2023-07-25T02:50:12.551Z,21.79
2023-07-25T02:52:38.938Z,21.79
2023-07-25T02:55:06.451Z,21.78
2023-07-25T02:57:33.048Z,21.78
2023-07-25T02:59:59.429Z,21.79
2023-07-25T03:02:25.851Z,21.77
2023-07-25T03:04:52.324Z,21.78
2023-07-25T03:07:19.005Z,21.78
2023-07-25T03:09:45.376Z,21.78
2023-07-25T03:12:11.940Z,21.78
2023-07-25T03:14:38.301Z,21.78
2023-07-25T03:17:04.712Z,21.79
2023-07-25T03:19:31.080Z,21.77
2023-07-25T03:21:57.526Z,21.77
2023-07-25T03:24:23.959Z,21.76
2023-07-25T03:26:50.342Z,21.75
2023-07-25T03:29:16.695Z,21.75
2023-07-25T03:31:43.244Z,21.75
2023-07-25T03:34:09.654Z,21.75
2023-07-25T03:36:36.079Z,21.73
2023-07-25T03:39:03.870Z,21.73
2023-07-25T03:41:30.589Z,21.74
2023-07-25T03:43:57.180Z,21.73
2023-07-25T03:46:23.642Z,21.73
2023-07-25T03:48:50.005Z,21.74
2023-07-25T03:51:16.378Z,21.73
2023-07-25T03:53:43.020Z,21.73
2023-07-25T03:56:09.374Z,21.72
2023-07-25T03:58:35.730Z,21.73
2023-07-25T04:01:02.109Z,21.72
2023-07-25T04:03:28.625Z,21.72
2023-07-25T04:05:55.202Z,21.73
2023-07-25T04:08:21.599Z,21.72
2023-07-25T04:10:48.009Z,21.72
2023-07-25T04:13:14.378Z,21.72
2023-07-25T04:15:40.728Z,21.71
2023-07-25T04:18:07.129Z,21.71
2023-07-25T04:20:33.508Z,21.72
2023-07-25T04:23:00.405Z,21.72
2023-07-25T04:25:26.849Z,21.72
2023-07-25T04:27:53.219Z,21.71
2023-07-25T04:30:19.571Z,21.71
2023-07-25T04:32:46.045Z,21.69
2023-07-25T04:35:12.618Z,21.69
2023-07-25T04:37:39.293Z,21.69
2023-07-25T04:40:06.285Z,21.69
2023-07-25T04:42:32.641Z,21.69
2023-07-25T04:44:59.257Z,21.69
2023-07-25T04:47:25.770Z,21.69
2023-07-25T04:49:52.177Z,21.70
2023-07-25T04:52:18.569Z,21.70
2023-07-25T04:54:44.941Z,21.69
2023-07-25T04:57:11.527Z,21.71
2023-07-25T04:59:37.884Z,21.73
2023-07-25T05:02:04.284Z,21.73
2023-07-25T05:04:30.655Z,21.76
2023-07-25T05:06:57.083Z,21.77
2023-07-25T05:09:23.524Z,21.79
2023-07-25T05:11:52.184Z,21.81
2023-07-25T05:14:18.831Z,21.85
2023-07-25T05:16:45.556Z,21.86
2023-07-25T05:19:11.949Z,21.87
2023-07-25T05:21:38.310Z,21.88
2023-07-25T05:24:04.714Z,21.98
2023-07-25T05:26:31.112Z,22.03
2023-07-25T05:28:57.459Z,22.12
2023-07-25T05:31:23.930Z,22.15
2023-07-25T05:33:50.338Z,22.18
2023-07-25T05:36:16.711Z,22.17
2023-07-25T05:38:43.107Z,22.17
2023-07-25T05:41:09.458Z,22.23
2023-07-25T05:43:35.823Z,22.18
2023-07-25T05:46:02.233Z,22.25
2023-07-25T05:48:28.665Z,22.21
2023-07-25T05:50:55.025Z,22.24
2023-07-25T05:53:21.440Z,22.26
2023-07-25T05:55:47.933Z,22.18
2023-07-25T05:58:14.718Z,22.23
2023-07-25T06:00:41.195Z,22.25
2023-07-25T06:03:07.671Z,22.27
2023-07-25T06:05:36.981Z,22.26
2023-07-25T06:08:03.332Z,22.27
2023-07-25T06:10:29.737Z,22.28
2023-07-25T06:12:56.107Z,22.27
2023-07-25T06:15:22.477Z,22.27
2023-07-25T06:17:48.870Z,22.29
2023-07-25T06:20:15.258Z,22.31
2023-07-25T06:22:41.636Z,22.37
2023-07-25T06:25:08.804Z,21.28
2023-07-25T06:27:35.210Z,21.10
2023-07-25T06:30:04.542Z,21.15
2023-07-25T06:32:31.384Z,20.86
2023-07-25T06:34:57.826Z,20.56
2023-07-25T06:37:24.222Z,20.65
2023-07-25T06:39:50.623Z,20.74
2023-07-25T06:42:16.999Z,20.68
2023-07-25T06:44:43.346Z,20.83
2023-07-25T06:47:09.802Z,20.91
2023-07-25T06:49:36.165Z,21.01
2023-07-25T06:52:02.574Z,20.61
2023-07-25T06:54:29.178Z,20.11
2023-07-25T06:56:55.554Z,19.99
2023-07-25T06:59:21.909Z,19.71
2023-07-25T07:01:48.285Z,20.13
2023-07-25T07:04:14.740Z,20.21
2023-07-25T07:06:41.190Z,20.36
2023-07-25T07:09:07.548Z,20.38
2023-07-25T07:11:34.175Z,20.45
2023-07-25T07:14:00.824Z,20.28
2023-07-25T07:16:27.236Z,20.12
2023-07-25T07:18:53.913Z,20.08
2023-07-25T07:21:20.280Z,20.06
2023-07-25T07:23:46.662Z,20.39
2023-07-25T07:26:13.029Z,20.68
2023-07-25T07:28:40.206Z,20.58
2023-07-25T07:31:10.005Z,20.20
2023-07-25T07:33:36.548Z,20.19
2023-07-25T07:36:02.911Z,20.26
2023-07-25T07:38:29.276Z,20.32
2023-07-25T07:40:55.627Z,20.31
2023-07-25T07:43:22.018Z,20.29
2023-07-25T07:45:48.887Z,20.45
2023-07-25T07:48:15.250Z,20.59
2023-07-25T07:50:41.596Z,20.67
2023-07-25T07:53:07.958Z,20.74
2023-07-25T07:55:34.316Z,20.79
2023-07-25T07:58:01.322Z,20.70
2023-07-25T08:00:27.903Z,20.75
2023-07-25T08:02:54.298Z,20.71
2023-07-25T08:05:20.742Z,20.73
2023-07-25T08:07:47.235Z,20.80
2023-07-25T08:10:13.713Z,20.92
2023-07-25T08:12:40.222Z,20.90
2023-07-25T08:15:07.006Z,20.81
2023-07-25T08:17:33.419Z,20.76
2023-07-25T08:20:00.107Z,20.98
2023-07-25T08:22:26.485Z,21.09
2023-07-25T08:24:53.128Z,21.10
2023-07-25T08:27:19.515Z,21.23
2023-07-25T08:29:48.874Z,21.30
2023-07-25T08:32:15.948Z,21.33
2023-07-25T08:34:42.926Z,21.39
2023-07-25T08:37:09.394Z,21.39
2023-07-25T08:39:35.839Z,21.36
2023-07-25T08:42:04.776Z,21.32
2023-07-25T08:44:31.137Z,21.39
2023-07-25T08:46:57.827Z,21.39
2023-07-25T08:49:24.872Z,21.29
2023-07-25T08:51:54.493Z,21.37
2023-07-25T08:54:38.860Z,21.36
2023-07-25T08:57:05.395Z,21.46
2023-07-25T08:59:32.060Z,21.38
2023-07-25T09:01:58.623Z,21.38
2023-07-25T09:04:25.500Z,21.44
2023-07-25T09:06:52.022Z,21.47
2023-07-25T09:09:18.526Z,21.47
2023-07-25T09:11:45.487Z,21.50
2023-07-25T09:14:12.197Z,21.54
2023-07-25T09:16:38.616Z,21.55
2023-07-25T09:19:05.009Z,21.59
2023-07-25T09:21:31.677Z,21.55
2023-07-25T09:23:59.021Z,21.51
2023-07-25T09:26:26.554Z,21.54
2023-07-25T09:28:53.699Z,21.59
2023-07-25T09:31:23.092Z,21.64
2023-07-25T09:33:49.803Z,21.67
2023-07-25T09:36:16.282Z,21.71
2023-07-25T09:38:54.935Z,21.69
2023-07-25T09:41:21.875Z,21.68
2023-07-25T09:43:48.245Z,21.69
2023-07-25T09:46:14.825Z,21.70
2023-07-25T09:48:48.936Z,21.66
2023-07-25T09:51:15.424Z,21.63
2023-07-25T09:53:45.367Z,21.57
2023-07-25T09:56:11.743Z,21.53
2023-07-25T09:58:44.519Z,21.53
2023-07-25T10:01:17.660Z,21.53
2023-07-25T10:03:44.890Z,21.62
2023-07-25T10:06:18.087Z,21.63
2023-07-25T10:08:47.117Z,21.53
2023-07-25T10:11:13.784Z,21.52
2023-07-25T10:13:42.932Z,21.57
2023-07-25T10:16:09.631Z,21.62
2023-07-25T10:18:36.337Z,21.65
2023-07-25T10:21:03.065Z,21.62
2023-07-25T10:23:29.997Z,21.60
2023-07-25T10:25:56.382Z,21.63
2023-07-25T10:28:23.521Z,21.61
2023-07-25T10:30:49.957Z,21.60
2023-07-25T10:33:17.018Z,21.63
2023-07-25T10:35:55.851Z,21.66
2023-07-25T10:38:34.392Z,21.39
2023-07-25T10:41:01.386Z,21.17
2023-07-25T10:43:29.062Z,21.10
2023-07-25T10:45:56.165Z,21.03
2023-07-25T10:48:32.386Z,20.93
2023-07-25T10:50:58.979Z,20.82
2023-07-25T10:53:25.775Z,20.92
2023-07-25T10:56:07.718Z,20.58
2023-07-25T10:58:38.577Z,20.63
2023-07-25T11:01:05.143Z,20.57
2023-07-25T11:03:32.654Z,20.40
2023-07-25T11:06:08.237Z,20.41
2023-07-25T11:08:38.232Z,20.25
2023-07-25T11:11:08.423Z,20.37
2023-07-25T11:13:35.391Z,20.41
2023-07-25T11:16:02.254Z,20.35
2023-07-25T11:18:28.690Z,20.21
2023-07-25T11:21:02.048Z,20.12
2023-07-25T11:23:28.427Z,20.23
2023-07-25T11:25:55.482Z,20.20
2023-07-25T11:28:22.052Z,20.32
2023-07-25T11:30:48.619Z,20.11
2023-07-25T11:33:15.021Z,20.21
2023-07-25T11:35:41.487Z,20.25
2023-07-25T11:38:07.918Z,20.22
2023-07-25T11:40:34.304Z,20.17
2023-07-25T11:43:00.705Z,20.24
2023-07-25T11:45:27.323Z,20.19
2023-07-25T11:47:53.774Z,20.13
2023-07-25T11:50:26.320Z,20.12
2023-07-25T11:52:55.671Z,20.01
2023-07-25T11:55:22.062Z,19.80
2023-07-25T11:57:48.832Z,19.81
2023-07-25T12:00:17.233Z,19.69
2023-07-25T12:02:43.786Z,19.78
2023-07-25T12:05:10.458Z,19.71
2023-07-25T12:07:52.145Z,19.77
2023-07-25T12:10:27.949Z,19.62
2023-07-25T12:12:55.081Z,19.79
2023-07-25T12:15:21.458Z,19.89
2023-07-25T12:17:47.973Z,19.82
2023-07-25T12:20:15.161Z,19.77
2023-07-25T12:22:41.532Z,20.09
2023-07-25T12:25:08.003Z,20.02
2023-07-25T12:27:34.470Z,20.04
2023-07-25T12:30:00.834Z,20.17
2023-07-25T12:32:27.213Z,20.14
2023-07-25T12:35:00.363Z,19.95
2023-07-25T12:37:26.739Z,20.19
2023-07-25T12:39:53.130Z,20.27
2023-07-25T12:42:19.495Z,20.34
2023-07-25T12:44:45.859Z,20.23
2023-07-25T12:47:12.208Z,20.30
2023-07-25T12:49:38.560Z,20.13
2023-07-25T12:52:05.118Z,20.13
2023-07-25T12:54:31.498Z,20.27
2023-07-25T12:56:57.887Z,20.15
2023-07-25T12:59:24.273Z,20.16
2023-07-25T13:01:50.780Z,20.47
2023-07-25T13:04:17.330Z,20.57
2023-07-25T13:06:44.328Z,20.63
2023-07-25T13:09:10.716Z,20.67
2023-07-25T13:11:37.083Z,20.74
2023-07-25T13:14:03.760Z,20.88
2023-07-25T13:16:30.473Z,20.92
2023-07-25T13:18:57.286Z,20.97
2023-07-25T13:21:23.693Z,20.87
2023-07-25T13:23:50.077Z,20.92
2023-07-25T13:26:16.461Z,20.98
2023-07-25T13:28:42.863Z,21.07
2023-07-25T13:31:09.259Z,21.10
2023-07-25T13:33:35.749Z,21.16
2023-07-25T13:36:02.157Z,21.13
2023-07-25T13:38:28.517Z,21.03
2023-07-25T13:40:54.921Z,20.98
2023-07-25T13:43:21.385Z,21.16
2023-07-25T13:45:52.560Z,21.08
2023-07-25T13:48:19.910Z,21.06
2023-07-25T13:50:52.683Z,20.86
2023-07-25T13:53:19.831Z,20.91
2023-07-25T13:55:46.236Z,20.93
2023-07-25T14:00:49.334Z,20.97
2023-07-25T14:03:15.745Z,20.80
2023-07-25T14:05:42.124Z,20.80
2023-07-25T14:08:08.909Z,20.87
2023-07-25T14:10:36.406Z,20.75
2023-07-25T14:13:02.814Z,20.67
2023-07-25T14:15:31.497Z,20.66
2023-07-25T14:17:58.128Z,20.73
2023-07-25T14:20:25.137Z,20.78
2023-07-25T14:22:51.505Z,20.75
2023-07-25T14:25:17.877Z,20.89
2023-07-25T14:27:44.295Z,20.95
2023-07-25T14:30:10.768Z,20.94
2023-07-25T14:32:37.177Z,20.90
2023-07-25T14:35:04.350Z,20.82
2023-07-25T14:37:36.980Z,20.77
2023-07-25T14:40:10.761Z,20.74
2023-07-25T14:42:37.161Z,20.57
2023-07-25T14:45:03.583Z,20.48
2023-07-25T14:47:30.040Z,20.48
2023-07-25T14:49:56.486Z,20.45
2023-07-25T14:52:22.860Z,20.44
2023-07-25T14:54:49.217Z,20.44
2023-07-25T14:57:17.963Z,20.56
2023-07-25T14:59:44.628Z,20.91
2023-07-25T15:02:11.206Z,21.03
2023-07-25T15:04:37.610Z,21.09
2023-07-25T15:07:03.975Z,21.15
2023-07-25T15:09:30.372Z,21.14
2023-07-25T15:11:56.737Z,21.15
2023-07-25T15:14:24.908Z,21.20
2023-07-25T15:16:51.485Z,21.21
2023-07-25T15:19:17.861Z,21.15
2023-07-25T15:21:44.288Z,21.14
2023-07-25T15:24:10.665Z,21.14
2023-07-25T15:26:37.032Z,21.13
2023-07-25T15:29:03.753Z,21.13
2023-07-25T15:31:30.925Z,21.13
2023-07-25T15:33:57.565Z,21.18
2023-07-25T15:36:24.014Z,21.19
2023-07-25T15:38:50.408Z,21.21
2023-07-25T15:41:16.757Z,21.26
2023-07-25T15:43:43.149Z,21.24
2023-07-25T15:46:09.597Z,21.27
2023-07-25T15:48:35.967Z,21.24
2023-07-25T15:51:02.336Z,21.02
2023-07-25T15:53:28.741Z,20.75
2023-07-25T15:55:55.126Z,20.58
2023-07-25T15:58:21.509Z,20.58
2023-07-25T16:00:47.917Z,20.49
2023-07-25T16:03:14.377Z,20.36
2023-07-25T16:05:40.796Z,20.33
2023-07-25T16:08:07.142Z,20.35
2023-07-25T16:10:33.518Z,20.28
2023-07-25T16:13:02.767Z,20.25
2023-07-25T16:15:33.199Z,20.25
2023-07-25T16:18:00.443Z,20.37
2023-07-25T16:20:27.053Z,20.49
2023-07-25T16:22:53.400Z,20.46
2023-07-25T16:25:19.784Z,20.58
2023-07-25T16:27:46.134Z,20.60
2023-07-25T16:30:12.527Z,20.64
2023-07-25T16:32:38.889Z,20.70
2023-07-25T16:35:05.399Z,20.50
2023-07-25T16:37:31.771Z,20.36
2023-07-25T16:39:58.131Z,20.40
2023-07-25T16:42:24.561Z,20.28
2023-07-25T16:44:50.911Z,20.39
2023-07-25T16:47:19.652Z,20.22
2023-07-25T16:49:46.049Z,20.17
2023-07-25T16:52:12.431Z,20.15
2023-07-25T16:54:38.769Z,20.13
2023-07-25T16:57:05.171Z,19.94
2023-07-25T16:59:31.562Z,20.00
2023-07-25T17:01:58.763Z,19.93
2023-07-25T17:04:25.193Z,20.02
2023-07-25T17:06:51.560Z,19.91
2023-07-25T17:09:18.404Z,20.00
2023-07-25T17:11:44.887Z,19.92
2023-07-25T17:14:11.274Z,20.06
2023-07-25T17:16:37.658Z,20.03
2023-07-25T17:19:04.035Z,20.13
2023-07-25T17:21:40.589Z,20.10
2023-07-25T17:24:08.233Z,20.10
2023-07-25T17:26:34.597Z,20.04
2023-07-25T17:29:00.966Z,20.04
2023-07-25T17:31:27.535Z,19.94
2023-07-25T17:33:54.026Z,20.03
2023-07-25T17:36:20.474Z,20.11
2023-07-25T17:38:46.849Z,20.15
2023-07-25T17:41:14.755Z,20.08
2023-07-25T17:43:41.138Z,20.04
2023-07-25T17:46:07.528Z,20.26
2023-07-25T17:48:34.502Z,20.46
2023-07-25T17:51:00.854Z,20.49
2023-07-25T17:53:27.636Z,20.59
2023-07-25T17:55:55.970Z,20.62
2023-07-25T17:58:22.382Z,20.61
2023-07-25T18:00:50.364Z,20.63
2023-07-25T18:03:17.132Z,20.63
2023-07-25T18:05:46.186Z,20.64
2023-07-25T18:08:12.667Z,20.63
2023-07-25T18:10:39.015Z,20.64
2023-07-25T18:13:05.417Z,20.65
2023-07-25T18:15:31.799Z,20.67
2023-07-25T18:17:58.343Z,20.68
2023-07-25T18:20:24.869Z,20.65
2023-07-25T18:22:51.230Z,20.75
2023-07-25T18:25:17.631Z,20.80
2023-07-25T18:27:44.001Z,20.84
2023-07-25T18:30:10.530Z,20.85
2023-07-25T18:32:36.910Z,20.80
2023-07-25T18:35:03.366Z,20.88
2023-07-25T18:37:29.725Z,20.92
2023-07-25T18:39:56.168Z,20.91
2023-07-25T18:42:22.593Z,20.94
2023-07-25T18:44:49.159Z,20.90
2023-07-25T18:47:24.730Z,20.95
2023-07-25T18:49:55.406Z,20.96
2023-07-25T18:52:21.767Z,20.97
2023-07-25T18:54:48.148Z,20.95
2023-07-25T18:57:18.621Z,20.93
2023-07-25T18:59:44.976Z,20.93
2023-07-25T19:02:11.443Z,20.92
2023-07-25T19:04:37.824Z,20.91
2023-07-25T19:07:04.253Z,20.92
2023-07-25T19:09:30.609Z,20.91
2023-07-25T19:11:58.485Z,20.93
2023-07-25T19:14:24.863Z,20.92
2023-07-25T19:16:51.364Z,20.91
2023-07-25T19:19:17.986Z,20.90
2023-07-25T19:21:44.353Z,20.81
2023-07-25T19:24:10.717Z,20.88
2023-07-25T19:26:37.512Z,20.83
2023-07-25T19:29:03.904Z,20.82
2023-07-25T19:31:30.273Z,20.81
2023-07-25T19:33:57.655Z,20.81
2023-07-25T19:36:24.030Z,20.80
2023-07-25T19:38:50.472Z,20.79
2023-07-25T19:41:17.178Z,20.78
2023-07-25T19:43:43.550Z,20.79
2023-07-25T19:46:09.966Z,20.77
2023-07-25T19:48:36.354Z,20.78
2023-07-25T19:51:12.146Z,20.80
2023-07-25T19:53:38.570Z,20.79
2023-07-25T19:56:05.226Z,20.78
2023-07-25T19:58:31.607Z,20.74
2023-07-25T20:00:58.225Z,20.75
2023-07-25T20:03:25.079Z,20.79
2023-07-25T20:05:51.535Z,20.75
2023-07-25T20:08:17.951Z,20.77
2023-07-25T20:10:44.355Z,20.76
2023-07-25T20:13:10.786Z,20.74
2023-07-25T20:15:37.177Z,20.72
2023-07-25T20:18:03.548Z,20.74
2023-07-25T20:20:29.985Z,20.78
2023-07-25T20:22:56.379Z,20.75
2023-07-25T20:25:22.834Z,20.73
2023-07-25T20:27:49.220Z,20.72
2023-07-25T20:30:15.610Z,20.75
2023-07-25T20:32:42.083Z,20.72
2023-07-25T20:35:08.468Z,20.70
2023-07-25T20:37:34.838Z,20.61
2023-07-25T20:40:01.217Z,20.75
2023-07-25T20:42:27.688Z,20.68
2023-07-25T20:44:54.057Z,20.64
2023-07-25T20:47:20.413Z,20.62
2023-07-25T20:49:46.801Z,20.62
2023-07-25T20:52:13.176Z,20.51
2023-07-25T20:54:39.557Z,20.56
2023-07-25T20:57:06.043Z,20.57
2023-07-25T20:59:34.880Z,20.56
2023-07-25T21:02:01.284Z,20.56
2023-07-25T21:04:29.089Z,20.55
2023-07-25T21:06:55.663Z,20.55
2023-07-25T21:09:22.078Z,20.55
2023-07-25T21:11:48.511Z,20.55
2023-07-25T21:14:15.114Z,20.54
2023-07-25T21:16:41.704Z,20.55
2023-07-25T21:19:08.131Z,20.54
2023-07-25T21:21:34.714Z,20.55
2023-07-25T21:24:01.269Z,20.54
2023-07-25T21:26:27.645Z,20.51
2023-07-25T21:28:54.008Z,20.53
2023-07-25T21:31:20.388Z,20.52
2023-07-25T21:33:46.769Z,20.51
2023-07-25T21:36:14.140Z,20.49
2023-07-25T21:38:40.886Z,20.48
2023-07-25T21:41:07.814Z,20.49
2023-07-25T21:43:34.411Z,20.48
2023-07-25T21:46:01.327Z,20.47
2023-07-25T21:48:29.114Z,20.48
2023-07-25T21:50:55.622Z,20.47
2023-07-25T21:53:22.027Z,20.46
2023-07-25T21:55:48.444Z,20.46
2023-07-25T21:58:14.812Z,20.45
2023-07-25T22:00:41.869Z,20.45
2023-07-25T22:03:08.587Z,20.45
2023-07-25T22:05:35.026Z,20.43
2023-07-25T22:08:01.484Z,20.41
2023-07-25T22:10:27.848Z,20.42
2023-07-25T22:12:54.221Z,20.40
2023-07-25T22:15:20.643Z,20.40
2023-07-25T22:17:47.041Z,20.41
2023-07-25T22:20:13.538Z,20.41
2023-07-25T22:22:39.917Z,20.41
2023-07-25T22:25:06.481Z,20.40
2023-07-25T22:27:33.220Z,20.42
2023-07-25T22:29:59.564Z,20.40
2023-07-25T22:32:26.224Z,20.42
2023-07-25T22:34:52.612Z,20.40
2023-07-25T22:37:19.041Z,20.39
2023-07-25T22:39:45.390Z,20.40
2023-07-25T22:42:11.742Z,20.38
2023-07-25T22:44:38.112Z,20.36
2023-07-25T22:47:04.541Z,20.35
2023-07-25T22:49:31.709Z,20.34
2023-07-25T22:51:58.070Z,20.32
2023-07-25T22:54:24.514Z,20.32
2023-07-25T22:56:51.597Z,20.31
2023-07-25T22:59:18.010Z,20.31
2023-07-25T23:01:44.440Z,20.31
2023-07-25T23:04:10.855Z,20.30
2023-07-25T23:06:37.579Z,20.31
2023-07-25T23:09:04.106Z,20.30
2023-07-25T23:11:30.742Z,20.31
2023-07-25T23:13:57.640Z,20.32
2023-07-25T23:16:24.042Z,20.31
2023-07-25T23:18:50.461Z,20.32
2023-07-25T23:21:16.816Z,20.32
2023-07-25T23:23:43.563Z,20.31
2023-07-25T23:26:09.938Z,20.32
2023-07-25T23:28:36.309Z,20.32
2023-07-25T23:31:02.936Z,20.31
2023-07-25T23:33:29.368Z,20.30
2023-07-25T23:35:55.808Z,20.28
2023-07-25T23:38:22.204Z,20.28
2023-07-25T23:40:48.613Z,20.27
2023-07-25T23:43:16.881Z,20.25
2023-07-25T23:45:43.302Z,20.24
2023-07-25T23:48:09.673Z,20.24
2023-07-25T23:50:36.085Z,20.25
2023-07-25T23:53:02.463Z,20.25
2023-07-25T23:55:28.856Z,20.27
2023-07-25T23:57:55.224Z,20.27
